createdAt,value
2018-11-26T00:00:29.672Z,41.93
2018-11-26T00:02:58.142Z,49.40
2018-11-26T00:05:26.702Z,44.20
2018-11-26T00:07:55.155Z,45.07
2018-11-26T00:10:34.959Z,41.03
2018-11-26T00:13:03.487Z,41.60
2018-11-26T00:15:31.981Z,40.60
2018-11-26T00:18:00.446Z,44.70
2018-11-26T00:20:28.979Z,39.93
2018-11-26T00:22:57.520Z,41.07
2018-11-26T00:25:26.511Z,45.70
2018-11-26T00:27:54.991Z,43.97
2018-11-26T00:30:23.592Z,41.90
2018-11-26T00:32:52.067Z,43.50
2018-11-26T00:35:20.638Z,38.80
2018-11-26T00:37:49.078Z,43.30
2018-11-26T00:40:17.620Z,40.90
2018-11-26T00:42:46.152Z,43.20
2018-11-26T00:45:14.632Z,39.80
2018-11-26T00:47:43.392Z,37.57
2018-11-26T00:50:11.862Z,35.50
2018-11-26T00:52:40.771Z,41.87
2018-11-26T00:55:11.213Z,37.63
2018-11-26T00:57:40.181Z,40.73
2018-11-26T01:00:11.537Z,43.00
2018-11-26T01:02:40.539Z,44.20
2018-11-26T01:05:13.371Z,40.60
2018-11-26T01:07:42.357Z,43.17
2018-11-26T01:10:11.283Z,39.03
2018-11-26T01:12:40.304Z,42.23
2018-11-26T01:15:09.275Z,40.47
2018-11-26T01:17:38.230Z,40.17
2018-11-26T01:20:07.656Z,41.23
2018-11-26T01:22:36.234Z,48.13
2018-11-26T01:25:05.047Z,42.93
2018-11-26T01:27:33.691Z,47.20
2018-11-26T01:30:02.708Z,45.60
2018-11-26T01:32:31.658Z,44.80
2018-11-26T01:35:00.615Z,41.97
2018-11-26T01:37:29.286Z,42.50
2018-11-26T01:39:58.250Z,49.10
2018-11-26T01:42:27.149Z,40.17
2018-11-26T01:44:56.127Z,39.13
2018-11-26T01:47:25.109Z,38.87
2018-11-26T01:49:54.069Z,40.10
2018-11-26T01:52:23.148Z,39.23
2018-11-26T01:54:52.088Z,44.40
2018-11-26T01:57:21.029Z,41.30
2018-11-26T01:59:50.071Z,40.97
2018-11-26T02:02:18.966Z,42.23
2018-11-26T02:04:47.903Z,41.50
2018-11-26T02:07:16.827Z,41.00
2018-11-26T02:09:45.793Z,42.87
2018-11-26T02:12:14.734Z,36.97
2018-11-26T02:14:43.700Z,36.97
2018-11-26T02:17:12.645Z,46.80
2018-11-26T02:19:41.636Z,37.67
2018-11-26T02:22:10.558Z,37.33
2018-11-26T02:24:39.483Z,42.33
2018-11-26T02:27:08.494Z,35.60
2018-11-26T02:29:37.425Z,34.13
2018-11-26T02:32:06.504Z,37.87
2018-11-26T02:34:35.477Z,42.03
2018-11-26T02:37:04.287Z,34.87
2018-11-26T02:39:32.890Z,33.10
2018-11-26T02:42:01.925Z,38.70
2018-11-26T02:44:30.906Z,40.20
2018-11-26T02:46:59.891Z,33.77
2018-11-26T02:49:30.799Z,33.27
2018-11-26T02:51:59.591Z,34.40
2018-11-26T02:54:28.523Z,32.67
2018-11-26T02:56:57.305Z,36.30
2018-11-26T02:59:25.947Z,35.20
2018-11-26T03:01:54.428Z,36.87
2018-11-26T03:04:22.886Z,36.57
2018-11-26T03:06:51.316Z,35.57
2018-11-26T03:09:19.788Z,33.73
2018-11-26T03:11:48.236Z,32.03
2018-11-26T03:14:16.707Z,36.20
2018-11-26T03:16:45.146Z,32.43
2018-11-26T03:19:13.619Z,32.47
2018-11-26T03:21:42.092Z,37.40
2018-11-26T03:24:10.569Z,39.97
2018-11-26T03:26:39.025Z,29.00
2018-11-26T03:29:07.515Z,39.20
2018-11-26T03:31:35.927Z,37.37
2018-11-26T03:34:04.590Z,40.20
2018-11-26T03:36:33.047Z,31.87
2018-11-26T03:39:01.540Z,34.90
2018-11-26T03:41:30.023Z,30.20
2018-11-26T03:43:58.488Z,33.43
2018-11-26T03:46:26.948Z,45.50
2018-11-26T03:48:55.424Z,34.13
2018-11-26T03:51:23.885Z,34.57
2018-11-26T03:53:52.365Z,32.73
2018-11-26T03:56:20.839Z,31.90
2018-11-26T03:58:49.265Z,36.70
2018-11-26T04:01:17.777Z,33.27
2018-11-26T04:03:46.217Z,32.53
2018-11-26T04:06:14.675Z,30.67
2018-11-26T04:08:43.101Z,35.77
2018-11-26T04:11:11.607Z,36.73
2018-11-26T04:13:40.097Z,37.57
2018-11-26T04:16:08.589Z,36.27
2018-11-26T04:18:37.023Z,30.50
2018-11-26T04:21:06.077Z,34.20
2018-11-26T04:23:34.488Z,38.00
2018-11-26T04:26:02.946Z,36.87
2018-11-26T04:28:31.432Z,39.67
2018-11-26T04:30:59.930Z,34.03
2018-11-26T04:33:28.749Z,33.53
2018-11-26T04:35:57.219Z,36.70
2018-11-26T04:38:25.655Z,33.80
2018-11-26T04:40:54.459Z,32.13
2018-11-26T04:43:22.875Z,35.13
2018-11-26T04:45:51.303Z,34.97
2018-11-26T04:48:19.723Z,33.60
2018-11-26T04:50:48.184Z,32.10
2018-11-26T04:53:16.680Z,31.63
2018-11-26T04:55:45.175Z,30.70
2018-11-26T04:58:13.647Z,27.47
2018-11-26T05:00:42.064Z,29.20
2018-11-26T05:03:10.501Z,29.30
2018-11-26T05:05:38.973Z,31.30
2018-11-26T05:08:07.410Z,25.90
2018-11-26T05:10:35.857Z,30.97
2018-11-26T05:13:04.301Z,32.80
2018-11-26T05:15:32.712Z,30.47
2018-11-26T05:18:01.159Z,27.73
2018-11-26T05:20:29.580Z,28.53
2018-11-26T05:22:58.038Z,27.67
2018-11-26T05:25:26.456Z,30.03
2018-11-26T05:27:54.900Z,33.77
2018-11-26T05:30:23.353Z,26.57
2018-11-26T05:32:51.829Z,28.67
2018-11-26T05:35:20.275Z,28.90
2018-11-26T05:37:48.717Z,30.63
2018-11-26T05:40:17.208Z,34.43
2018-11-26T05:42:45.662Z,29.63
2018-11-26T05:45:15.107Z,33.07
2018-11-26T05:47:43.603Z,33.13
2018-11-26T05:50:13.077Z,30.63
2018-11-26T05:52:41.660Z,30.87
2018-11-26T05:55:12.165Z,29.40
2018-11-26T05:57:40.604Z,34.10
2018-11-26T06:00:16.748Z,30.90
2018-11-26T06:02:45.198Z,31.93
2018-11-26T06:05:13.659Z,28.57
2018-11-26T06:07:42.072Z,28.40
2018-11-26T06:10:10.642Z,31.13
2018-11-26T06:12:39.075Z,30.23
2018-11-26T06:15:11.504Z,29.47
2018-11-26T06:17:40.408Z,31.30
2018-11-26T06:20:12.033Z,29.70
2018-11-26T06:22:42.386Z,29.53
2018-11-26T06:25:12.936Z,28.50
2018-11-26T06:27:41.342Z,29.67
2018-11-26T06:30:12.211Z,28.27
2018-11-26T06:32:40.654Z,28.27
2018-11-26T06:35:19.598Z,30.70
2018-11-26T06:37:48.051Z,26.53
2018-11-26T06:40:16.521Z,28.03
2018-11-26T06:42:44.941Z,30.10
2018-11-26T06:45:15.670Z,20.73
2018-11-26T06:47:44.142Z,24.80
2018-11-26T06:50:14.528Z,26.30
2018-11-26T06:52:42.961Z,24.50
2018-11-26T06:55:13.732Z,23.27
2018-11-26T06:57:42.225Z,23.83
2018-11-26T07:00:12.156Z,19.30
2018-11-26T07:02:40.589Z,23.87
2018-11-26T07:05:12.776Z,19.77
2018-11-26T07:07:41.177Z,12.93
2018-11-26T07:10:10.575Z,14.53
2018-11-26T07:12:39.009Z,11.83
2018-11-26T07:15:11.332Z,13.03
2018-11-26T07:17:39.778Z,12.13
2018-11-26T07:20:13.507Z,11.33
2018-11-26T07:22:41.964Z,11.87
2018-11-26T07:25:11.697Z,12.77
2018-11-26T07:27:40.194Z,12.03
2018-11-26T07:30:15.664Z,19.57
2018-11-26T07:32:44.331Z,19.70
2018-11-26T07:35:13.304Z,19.57
2018-11-26T07:37:42.001Z,18.97
2018-11-26T07:40:14.431Z,21.73
2018-11-26T07:42:46.187Z,21.27
2018-11-26T07:45:14.784Z,18.07
2018-11-26T07:47:43.265Z,21.70
2018-11-26T07:50:13.794Z,20.33
2018-11-26T07:52:42.263Z,20.30
2018-11-26T07:55:12.281Z,17.43
2018-11-26T07:57:40.734Z,23.03
2018-11-26T08:00:11.018Z,17.03
2018-11-26T08:02:39.478Z,17.10
2018-11-26T08:05:09.486Z,18.97
2018-11-26T08:07:37.949Z,24.83
2018-11-26T08:10:23.101Z,18.70
2018-11-26T08:12:52.543Z,21.80
2018-11-26T08:15:22.613Z,21.90
2018-11-26T08:17:50.580Z,19.80
2018-11-26T08:20:19.046Z,18.17
2018-11-26T08:22:47.573Z,19.50
2018-11-26T08:25:18.326Z,18.60
2018-11-26T08:27:47.491Z,15.83
2018-11-26T08:30:20.828Z,14.77
2018-11-26T08:32:51.522Z,14.53
2018-11-26T08:35:20.076Z,14.80
2018-11-26T08:37:53.920Z,19.63
2018-11-26T08:40:26.112Z,12.47
2018-11-26T08:43:15.330Z,14.30
2018-11-26T08:45:51.328Z,13.77
2018-11-26T08:48:24.998Z,13.17
2018-11-26T08:50:53.618Z,15.30
2018-11-26T08:53:22.097Z,12.20
2018-11-26T08:55:50.590Z,11.10
2018-11-26T08:58:19.044Z,11.60
2018-11-26T09:00:51.734Z,14.70
2018-11-26T09:03:21.080Z,14.13
2018-11-26T09:06:00.114Z,11.43
2018-11-26T09:08:29.581Z,16.70
2018-11-26T09:10:58.056Z,12.03
2018-11-26T09:13:26.597Z,9.27
2018-11-26T09:15:55.006Z,12.40
2018-11-26T09:18:23.468Z,17.80
2018-11-26T09:20:51.948Z,14.37
2018-11-26T09:23:20.354Z,11.73
2018-11-26T09:25:48.790Z,11.23
2018-11-26T09:28:17.238Z,8.17
2018-11-26T09:30:45.683Z,9.63
2018-11-26T09:33:14.154Z,9.97
2018-11-26T09:35:42.569Z,5.97
2018-11-26T09:38:11.044Z,7.43
2018-11-26T09:40:39.471Z,6.53
2018-11-26T09:43:08.410Z,9.83
2018-11-26T09:45:40.388Z,9.53
2018-11-26T09:48:05.433Z,7.83
2018-11-26T09:50:33.837Z,10.80
2018-11-26T09:53:02.362Z,8.67
2018-11-26T09:55:30.832Z,8.10
2018-11-26T09:57:59.293Z,7.93
2018-11-26T10:00:27.819Z,6.60
2018-11-26T10:02:56.260Z,6.80
2018-11-26T10:05:25.617Z,7.63
2018-11-26T10:07:54.088Z,7.23
2018-11-26T10:10:22.581Z,11.07
2018-11-26T10:12:51.031Z,8.57
2018-11-26T10:15:20.617Z,8.60
2018-11-26T10:17:49.075Z,10.13
2018-11-26T10:20:17.582Z,9.13
2018-11-26T10:22:46.537Z,9.70
2018-11-26T10:25:16.273Z,6.43
2018-11-26T10:27:44.727Z,5.27
2018-11-26T10:30:14.225Z,5.47
2018-11-26T10:32:42.911Z,4.80
2018-11-26T10:35:13.881Z,4.47
2018-11-26T10:37:42.381Z,5.37
2018-11-26T10:40:13.974Z,4.57
2018-11-26T10:42:42.422Z,4.30
2018-11-26T10:45:12.171Z,8.63
2018-11-26T10:47:40.615Z,3.43
2018-11-26T10:50:13.228Z,4.73
2018-11-26T10:52:43.104Z,4.93
2018-11-26T10:55:13.184Z,3.73
2018-11-26T10:57:41.619Z,3.37
2018-11-26T11:00:16.709Z,4.00
2018-11-26T11:02:45.259Z,3.43
2018-11-26T11:05:13.735Z,3.97
2018-11-26T11:07:42.230Z,2.80
2018-11-26T11:10:15.163Z,3.93
2018-11-26T11:12:43.598Z,2.70
2018-11-26T11:15:12.785Z,3.80
2018-11-26T11:17:41.276Z,2.60
2018-11-26T11:20:16.925Z,2.30
2018-11-26T11:22:45.458Z,3.80
2018-11-26T11:25:14.805Z,2.80
2018-11-26T11:27:43.338Z,5.17
2018-11-26T11:30:17.795Z,2.43
2018-11-26T11:32:46.295Z,4.60
2018-11-26T11:35:15.420Z,2.10
2018-11-26T11:37:44.855Z,6.27
2018-11-26T11:40:17.217Z,4.60
2018-11-26T11:42:45.780Z,5.40
2018-11-26T11:45:14.479Z,2.50
2018-11-26T11:47:43.090Z,3.10
2018-11-26T11:50:12.566Z,4.27
2018-11-26T11:52:41.118Z,2.23
2018-11-26T11:55:11.860Z,2.30
2018-11-26T11:57:40.346Z,2.83
2018-11-26T12:00:17.448Z,2.33
2018-11-26T12:02:45.929Z,2.50
2018-11-26T12:05:16.127Z,2.53
2018-11-26T12:07:44.914Z,2.70
2018-11-26T12:10:13.586Z,1.50
2018-11-26T12:12:44.171Z,3.90
2018-11-26T12:15:14.341Z,2.43
2018-11-26T12:17:43.402Z,1.73
2018-11-26T12:20:12.957Z,2.03
2018-11-26T12:22:41.555Z,2.67
2018-11-26T12:25:13.277Z,1.67
2018-11-26T12:27:41.696Z,4.27
2018-11-26T12:30:27.238Z,1.60
2018-11-26T12:32:55.679Z,1.30
2018-11-26T12:35:24.193Z,1.63
2018-11-26T12:37:52.673Z,1.30
2018-11-26T12:40:22.218Z,1.20
2018-11-26T12:42:51.907Z,1.70
2018-11-26T12:45:21.637Z,1.50
2018-11-26T12:47:50.160Z,1.43
2018-11-26T12:50:18.737Z,1.53
2018-11-26T12:52:47.166Z,1.67
2018-11-26T12:55:16.713Z,2.40
2018-11-26T12:57:45.868Z,2.80
2018-11-26T13:00:15.244Z,5.80
2018-11-26T13:02:44.291Z,1.30
2018-11-26T13:05:14.176Z,1.93
2018-11-26T13:07:42.627Z,2.30
2018-11-26T13:10:12.296Z,1.60
2018-11-26T13:12:40.811Z,2.07
2018-11-26T13:15:11.711Z,5.20
2018-11-26T13:17:40.262Z,1.67
2018-11-26T13:20:12.793Z,6.63
2018-11-26T13:22:41.256Z,3.67
2018-11-26T13:25:11.699Z,2.50
2018-11-26T13:27:41.650Z,2.07
2018-11-26T13:30:46.042Z,2.27
2018-11-26T13:33:15.806Z,1.63
2018-11-26T13:35:45.318Z,3.13
2018-11-26T13:38:13.953Z,3.70
2018-11-26T13:40:42.465Z,1.50
2018-11-26T13:43:12.544Z,2.60
2018-11-26T13:45:43.172Z,1.80
2018-11-26T13:48:17.730Z,2.27
2018-11-26T13:50:52.090Z,2.20
2018-11-26T13:53:20.575Z,7.63
2018-11-26T13:55:49.061Z,2.57
2018-11-26T13:58:17.489Z,4.93
2018-11-26T14:00:46.002Z,2.00
2018-11-26T14:03:14.526Z,1.83
2018-11-26T14:05:43.027Z,3.50
2018-11-26T14:08:11.516Z,2.60
2018-11-26T14:10:39.979Z,2.40
2018-11-26T14:13:11.136Z,2.93
2018-11-26T14:15:40.631Z,1.50
2018-11-26T14:18:09.136Z,3.77
2018-11-26T14:20:39.548Z,2.30
2018-11-26T14:23:14.134Z,2.30
2018-11-26T14:25:42.763Z,4.17
2018-11-26T14:28:12.158Z,4.20
2018-11-26T14:30:41.320Z,2.93
2018-11-26T14:33:10.364Z,3.13
2018-11-26T14:35:38.848Z,1.63
2018-11-26T14:38:08.555Z,5.00
2018-11-26T14:40:43.485Z,2.07
2018-11-26T14:43:12.021Z,2.73
2018-11-26T14:45:40.886Z,2.13
2018-11-26T14:48:09.519Z,1.83
2018-11-26T14:50:38.104Z,1.33
2018-11-26T14:53:07.737Z,1.53
2018-11-26T14:55:37.722Z,4.17
2018-11-26T14:58:06.820Z,1.70
2018-11-26T15:00:35.346Z,3.43
2018-11-26T15:03:03.891Z,1.40
2018-11-26T15:05:32.421Z,4.43
2018-11-26T15:08:00.933Z,3.07
2018-11-26T15:10:30.501Z,3.80
2018-11-26T15:13:01.194Z,4.83
2018-11-26T15:15:30.400Z,1.97
2018-11-26T15:18:03.180Z,1.40
2018-11-26T15:23:09.000Z,1.93
2018-11-26T15:25:39.133Z,2.23
2018-11-26T15:28:13.482Z,6.40
2018-11-26T15:30:42.722Z,3.43
2018-11-26T15:33:11.206Z,2.93
2018-11-26T15:35:44.282Z,2.63
2018-11-26T15:38:13.102Z,1.70
2018-11-26T15:40:42.894Z,2.57
2018-11-26T15:43:14.415Z,4.90
2018-11-26T15:45:42.849Z,8.13
2018-11-26T15:48:12.951Z,4.33
2018-11-26T15:50:41.559Z,2.67
2018-11-26T15:53:10.395Z,2.53
2018-11-26T15:55:38.887Z,3.63
2018-11-26T15:58:08.273Z,2.93
2018-11-26T16:00:36.749Z,5.23
2018-11-26T16:03:05.899Z,5.70
2018-11-26T16:05:35.427Z,2.53
2018-11-26T16:08:08.340Z,3.57
2018-11-26T16:10:36.975Z,2.60
2018-11-26T16:13:11.474Z,2.70
2018-11-26T16:15:42.274Z,3.17
2018-11-26T16:18:13.468Z,2.80
2018-11-26T16:20:41.606Z,2.87
2018-11-26T16:23:10.892Z,2.60
2018-11-26T16:25:41.558Z,2.83
2018-11-26T16:28:11.242Z,4.33
2018-11-26T16:30:39.746Z,2.97
2018-11-26T16:33:08.887Z,3.20
2018-11-26T16:35:37.519Z,3.63
2018-11-26T16:38:10.348Z,2.70
2018-11-26T16:40:38.872Z,3.00
2018-11-26T16:43:08.285Z,3.30
2018-11-26T16:45:36.798Z,3.10
2018-11-26T16:48:07.072Z,4.37
2018-11-26T16:50:37.508Z,3.90
2018-11-26T16:53:07.917Z,2.47
2018-11-26T16:55:38.305Z,3.13
2018-11-26T16:58:07.148Z,4.43
2018-11-26T17:00:35.693Z,7.40
2018-11-26T17:03:04.311Z,4.37
2018-11-26T17:05:38.341Z,4.63
2018-11-26T17:08:08.356Z,3.20
2018-11-26T17:10:36.933Z,7.73
2018-11-26T17:13:05.930Z,3.90
2018-11-26T17:15:34.444Z,3.20
2018-11-26T17:18:03.051Z,2.60
2018-11-26T17:20:31.533Z,6.43
2018-11-26T17:23:00.001Z,7.37
2018-11-26T17:25:28.537Z,6.97
2018-11-26T17:27:57.173Z,3.43
2018-11-26T17:30:26.913Z,3.47
2018-11-26T17:32:59.416Z,3.07
2018-11-26T17:35:28.281Z,3.00
2018-11-26T17:37:56.752Z,3.67
2018-11-26T17:40:25.648Z,4.20
2018-11-26T17:42:54.489Z,3.73
2018-11-26T17:45:23.709Z,5.10
2018-11-26T17:47:54.343Z,3.63
2018-11-26T17:50:26.080Z,2.80
2018-11-26T17:52:54.636Z,3.20
2018-11-26T17:55:23.213Z,3.20
2018-11-26T17:57:51.778Z,3.00
2018-11-26T18:00:24.613Z,3.33
2018-11-26T18:02:53.729Z,3.30
2018-11-26T18:05:23.624Z,3.47
2018-11-26T18:07:57.988Z,9.07
2018-11-26T18:10:26.474Z,3.80
2018-11-26T18:12:55.023Z,6.63
2018-11-26T18:15:23.664Z,3.53
2018-11-26T18:17:52.169Z,2.80
2018-11-26T18:20:21.593Z,4.03
2018-11-26T18:22:52.274Z,4.60
2018-11-26T18:25:21.369Z,2.87
2018-11-26T18:27:54.528Z,2.83
2018-11-26T18:30:27.943Z,3.13
2018-11-26T18:32:56.443Z,2.60
2018-11-26T18:35:25.001Z,5.30
2018-11-26T18:37:53.517Z,3.03
2018-11-26T18:40:22.044Z,3.00
2018-11-26T18:42:51.353Z,3.43
2018-11-26T18:45:20.194Z,5.07
2018-11-26T18:47:48.959Z,3.17
2018-11-26T18:50:19.543Z,3.00
2018-11-26T18:52:48.958Z,3.80
2018-11-26T18:55:17.604Z,3.90
2018-11-26T18:57:46.107Z,2.50
2018-11-26T19:00:21.601Z,5.30
2018-11-26T19:02:50.497Z,10.07
2018-11-26T19:05:19.681Z,3.40
2018-11-26T19:07:49.596Z,2.30
2018-11-26T19:10:19.399Z,2.10
2018-11-26T19:12:49.698Z,2.73
2018-11-26T19:15:20.192Z,2.00
2018-11-26T19:17:49.376Z,1.80
2018-11-26T19:20:17.875Z,4.27
2018-11-26T19:22:46.395Z,1.90
2018-11-26T19:25:16.747Z,2.77
2018-11-26T19:27:45.441Z,4.13
2018-11-26T19:30:14.909Z,2.00
2018-11-26T19:32:44.438Z,3.03
2018-11-26T19:35:14.323Z,7.03
2018-11-26T19:37:43.062Z,5.63
2018-11-26T19:40:12.791Z,2.33
2018-11-26T19:42:42.045Z,4.80
2018-11-26T19:45:14.005Z,7.30
2018-11-26T19:47:42.745Z,3.07
2018-11-26T19:50:12.755Z,2.90
2018-11-26T19:52:41.263Z,1.80
2018-11-26T19:55:13.034Z,1.87
2018-11-26T19:57:41.546Z,3.67
2018-11-26T20:00:12.387Z,1.43
2018-11-26T20:02:41.001Z,7.97
2018-11-26T20:05:13.444Z,1.73
2018-11-26T20:07:42.261Z,1.70
2018-11-26T20:10:10.884Z,1.97
2018-11-26T20:12:39.780Z,2.20
2018-11-26T20:15:11.845Z,2.07
2018-11-26T20:17:40.584Z,1.87
2018-11-26T20:20:09.610Z,3.97
2018-11-26T20:22:38.122Z,2.07
2018-11-26T20:25:10.066Z,1.87
2018-11-26T20:27:38.588Z,2.83
2018-11-26T20:30:10.716Z,2.13
2018-11-26T20:32:39.459Z,2.50
2018-11-26T20:35:09.526Z,2.60
2018-11-26T20:37:38.117Z,3.60
2018-11-26T20:40:11.151Z,3.90
2018-11-26T20:42:40.695Z,3.00
2018-11-26T20:45:11.904Z,4.07
2018-11-26T20:47:40.471Z,6.23
2018-11-26T20:50:16.103Z,7.30
2018-11-26T20:52:44.671Z,2.53
2018-11-26T20:55:15.049Z,4.00
2018-11-26T20:57:43.496Z,2.73
2018-11-26T21:00:15.052Z,4.37
2018-11-26T21:02:45.177Z,3.07
2018-11-26T21:05:13.816Z,5.03
2018-11-26T21:07:43.015Z,2.93
2018-11-26T21:10:17.319Z,3.73
2018-11-26T21:12:46.337Z,3.10
2018-11-26T21:15:16.175Z,5.97
2018-11-26T21:17:46.312Z,3.03
2018-11-26T21:20:23.554Z,3.57
2018-11-26T21:22:52.392Z,3.03
2018-11-26T21:25:20.896Z,3.10
2018-11-26T21:27:49.431Z,3.23
2018-11-26T21:30:19.543Z,5.27
2018-11-26T21:32:48.074Z,2.90
2018-11-26T21:35:18.718Z,3.10
2018-11-26T21:37:50.177Z,3.37
2018-11-26T21:40:20.527Z,2.87
2018-11-26T21:42:48.743Z,3.17
2018-11-26T21:45:19.014Z,3.10
2018-11-26T21:47:47.498Z,3.13
2018-11-26T21:50:16.155Z,3.50
2018-11-26T21:52:44.800Z,3.63
2018-11-26T21:55:14.345Z,3.37
2018-11-26T21:57:42.868Z,3.57
2018-11-26T22:00:15.151Z,4.87
2018-11-26T22:02:43.657Z,5.93
2018-11-26T22:05:12.251Z,3.50
2018-11-26T22:07:40.739Z,3.53
2018-11-26T22:10:11.724Z,3.63
2018-11-26T22:12:40.192Z,2.83
2018-11-26T22:15:11.106Z,3.50
2018-11-26T22:17:39.923Z,3.90
2018-11-26T22:20:13.033Z,3.37
2018-11-26T22:22:41.527Z,3.93
2018-11-26T22:25:11.181Z,3.33
2018-11-26T22:27:39.766Z,4.00
2018-11-26T22:30:26.253Z,3.50
2018-11-26T22:32:54.763Z,4.77
2018-11-26T22:35:23.228Z,4.37
2018-11-26T22:37:51.704Z,4.67
2018-11-26T22:40:22.005Z,4.70
2018-11-26T22:48:43.877Z,5.20
2018-11-26T22:51:12.344Z,3.60
2018-11-26T22:53:40.825Z,4.20
2018-11-26T22:56:09.302Z,5.03
2018-11-26T22:58:37.763Z,4.03
2018-11-26T23:01:06.958Z,3.00
2018-11-26T23:03:35.410Z,4.93
2018-11-26T23:06:03.887Z,2.63
2018-11-26T23:08:32.327Z,2.73
2018-11-26T23:11:00.798Z,4.03
2018-11-26T23:13:29.233Z,2.83
2018-11-26T23:15:57.772Z,4.30
2018-11-26T23:18:26.213Z,3.60
2018-11-26T23:20:54.693Z,3.17
2018-11-26T23:23:23.342Z,4.20
2018-11-26T23:25:52.375Z,3.80
2018-11-26T23:28:20.953Z,4.50
2018-11-26T23:30:49.576Z,3.13
2018-11-26T23:33:18.111Z,3.63
2018-11-26T23:35:46.745Z,3.43
2018-11-26T23:38:15.238Z,5.73
2018-11-26T23:40:43.872Z,3.40
2018-11-26T23:43:12.441Z,2.77
2018-11-26T23:45:41.004Z,5.20
2018-11-26T23:48:09.640Z,2.60
2018-11-26T23:50:38.246Z,2.50
2018-11-26T23:53:07.243Z,2.50
2018-11-26T23:55:35.758Z,2.30
2018-11-26T23:58:04.309Z,4.07
